createdAt,value
2017-08-16T00:01:23.762Z,98490.84
2017-08-16T00:03:51.233Z,98496.39
2017-08-16T00:06:18.682Z,98498.27
2017-08-16T00:08:46.135Z,98491.72
2017-08-16T00:11:13.600Z,98489.70
2017-08-16T00:13:41.048Z,98492.50
2017-08-16T00:16:08.513Z,98494.61
2017-08-16T00:18:35.949Z,98490.06
2017-08-16T00:21:03.422Z,98500.09
2017-08-16T00:23:30.893Z,98496.91
2017-08-16T00:25:58.353Z,98502.84
2017-08-16T00:28:25.792Z,98496.48
2017-08-16T00:30:53.236Z,98502.47
2017-08-16T00:33:20.709Z,98504.28
2017-08-16T00:35:48.150Z,98500.98
2017-08-16T00:38:15.591Z,98498.01
2017-08-16T00:40:43.057Z,98498.45
2017-08-16T00:43:10.605Z,98503.27
2017-08-16T00:45:38.058Z,98509.85
2017-08-16T00:48:05.508Z,98501.02
2017-08-16T00:50:32.973Z,98502.72
2017-08-16T00:53:00.424Z,98505.19
2017-08-16T00:55:27.887Z,98510.00
2017-08-16T00:57:55.365Z,98506.13
2017-08-16T01:00:22.812Z,98510.76
2017-08-16T01:02:50.257Z,98504.86
2017-08-16T01:05:17.737Z,98508.37
2017-08-16T01:07:45.181Z,98504.34
2017-08-16T01:10:12.648Z,98504.88
2017-08-16T01:12:40.086Z,98506.66
2017-08-16T01:15:07.529Z,98505.66
2017-08-16T01:17:35.010Z,98511.19
2017-08-16T01:20:02.454Z,98511.34
2017-08-16T01:22:29.898Z,98510.30
2017-08-16T01:24:57.364Z,98522.84
2017-08-16T01:27:24.805Z,98523.00
2017-08-16T01:29:52.250Z,98525.42
2017-08-16T01:32:19.717Z,98526.64
2017-08-16T01:34:47.189Z,98534.82
2017-08-16T01:37:14.677Z,98523.23
2017-08-16T01:39:42.145Z,98527.51
2017-08-16T01:42:09.608Z,98538.75
2017-08-16T01:44:37.102Z,98535.69
2017-08-16T01:47:04.553Z,98532.03
2017-08-16T01:49:31.996Z,98544.57
2017-08-16T01:51:59.473Z,98536.44
2017-08-16T01:54:26.931Z,98547.41
2017-08-16T01:56:54.400Z,98557.24
2017-08-16T01:59:21.845Z,98563.16
2017-08-16T02:01:49.294Z,98572.32
2017-08-16T02:04:16.757Z,98564.94
2017-08-16T02:06:44.207Z,98584.56
2017-08-16T02:09:11.684Z,98597.39
2017-08-16T02:11:39.133Z,98651.25
2017-08-16T02:14:06.573Z,98680.77
2017-08-16T02:16:34.046Z,98683.63
2017-08-16T02:19:01.494Z,98662.67
2017-08-16T02:21:28.965Z,98663.22
2017-08-16T02:23:56.413Z,98669.67
2017-08-16T02:26:23.861Z,98670.55
2017-08-16T02:28:51.336Z,98658.66
2017-08-16T02:31:18.785Z,98648.02
2017-08-16T02:33:46.224Z,98664.48
2017-08-16T02:36:13.698Z,98656.06
2017-08-16T02:38:41.149Z,98656.80
2017-08-16T02:41:08.624Z,98670.26
2017-08-16T02:43:36.080Z,98650.42
2017-08-16T02:46:03.554Z,98650.42
2017-08-16T02:48:31.001Z,98663.86
2017-08-16T02:50:58.450Z,98664.28
2017-08-16T02:53:25.916Z,98665.73
2017-08-16T02:55:53.389Z,98666.16
2017-08-16T02:58:20.880Z,98673.91
2017-08-16T03:00:48.319Z,98678.41
2017-08-16T03:03:15.768Z,98674.63
2017-08-16T03:05:43.252Z,98672.30
2017-08-16T03:08:10.698Z,98679.13
2017-08-16T03:10:38.170Z,98675.63
2017-08-16T03:13:05.609Z,98693.40
2017-08-16T03:15:33.078Z,98695.92
2017-08-16T03:18:00.545Z,98697.80
2017-08-16T03:20:28.023Z,98694.94
2017-08-16T03:22:55.469Z,98710.27
2017-08-16T03:25:22.917Z,98716.05
2017-08-16T03:27:50.388Z,98712.67
2017-08-16T03:30:17.851Z,98724.03
2017-08-16T03:32:45.322Z,98735.87
2017-08-16T03:35:12.773Z,98736.34
2017-08-16T03:37:40.252Z,98735.11
2017-08-16T03:40:07.725Z,98742.20
2017-08-16T03:42:35.169Z,98740.52
2017-08-16T03:45:02.630Z,98740.93
2017-08-16T03:47:30.109Z,98747.11
2017-08-16T03:49:57.564Z,98752.60
2017-08-16T03:52:25.037Z,98754.65
2017-08-16T03:54:52.506Z,98756.34
2017-08-16T03:57:19.949Z,98759.72
2017-08-16T03:59:47.388Z,98763.36
2017-08-16T04:02:14.848Z,98766.00
2017-08-16T04:04:42.317Z,98776.17
2017-08-16T04:07:09.774Z,98778.91
2017-08-16T04:09:37.253Z,98779.26
2017-08-16T04:12:04.722Z,98784.17
2017-08-16T04:14:32.173Z,98788.01
2017-08-16T04:16:59.624Z,98787.94
2017-08-16T04:19:27.088Z,98796.81
2017-08-16T04:21:55.125Z,98790.19
2017-08-16T04:24:22.572Z,98783.66
2017-08-16T04:26:50.016Z,98791.26
2017-08-16T04:29:17.494Z,98794.31
2017-08-16T04:31:45.105Z,98789.56
2017-08-16T04:34:12.597Z,98786.51
2017-08-16T04:36:40.047Z,98789.02
2017-08-16T04:39:07.491Z,98792.92
2017-08-16T04:41:34.957Z,98793.38
2017-08-16T04:44:02.397Z,98792.23
2017-08-16T04:46:29.853Z,98790.41
2017-08-16T04:48:57.329Z,98784.73
2017-08-16T04:51:24.779Z,98781.67
2017-08-16T04:53:52.245Z,98781.03
2017-08-16T04:56:19.717Z,98783.91
2017-08-16T04:58:47.157Z,98790.53
2017-08-16T05:01:14.644Z,98789.83
2017-08-16T05:03:42.093Z,98792.67
2017-08-16T05:06:09.542Z,98794.95
2017-08-16T05:08:37.014Z,98804.17
2017-08-16T05:11:04.462Z,98793.44
2017-08-16T05:13:31.932Z,98800.36
2017-08-16T05:15:59.417Z,98802.70
2017-08-16T05:18:26.877Z,98801.25
2017-08-16T05:20:54.351Z,98802.41
2017-08-16T05:23:21.825Z,98804.48
2017-08-16T05:25:49.284Z,98820.98
2017-08-16T05:28:16.773Z,98823.02
2017-08-16T05:30:44.351Z,98826.11
2017-08-16T05:33:11.825Z,98825.44
2017-08-16T05:35:39.276Z,98822.95
2017-08-16T05:38:06.725Z,98832.55
2017-08-16T05:40:34.202Z,98841.53
2017-08-16T05:43:01.649Z,98844.39
2017-08-16T05:45:29.092Z,98850.34
2017-08-16T05:47:56.560Z,98854.34
2017-08-16T05:50:24.038Z,98865.82
2017-08-16T05:52:51.488Z,98862.20
2017-08-16T05:55:18.967Z,98868.69
2017-08-16T05:57:46.405Z,98878.07
2017-08-16T06:00:13.872Z,98884.33
2017-08-16T06:02:41.314Z,98887.25
2017-08-16T06:05:08.788Z,98890.32
2017-08-16T06:07:36.237Z,98883.08
2017-08-16T06:10:03.682Z,98892.65
2017-08-16T06:12:31.144Z,98892.27
2017-08-16T06:14:58.584Z,98897.28
2017-08-16T06:17:26.058Z,98895.39
2017-08-16T06:19:53.525Z,98897.10
2017-08-16T06:22:20.970Z,98903.95
2017-08-16T06:24:48.416Z,98910.34
2017-08-16T06:27:15.874Z,98914.17
2017-08-16T06:29:43.344Z,98919.13
2017-08-16T06:32:10.780Z,98927.70
2017-08-16T06:34:38.237Z,98931.30
2017-08-16T06:37:05.705Z,98922.34
2017-08-16T06:39:33.150Z,98921.33
2017-08-16T06:42:00.622Z,98926.34
2017-08-16T06:44:28.069Z,98924.00
2017-08-16T06:46:55.541Z,98918.89
2017-08-16T06:49:22.990Z,98923.85
2017-08-16T06:51:50.430Z,98917.89
2017-08-16T06:54:17.901Z,98923.02
2017-08-16T06:56:45.357Z,98917.95
2017-08-16T06:59:12.834Z,98924.92
2017-08-16T07:01:40.290Z,98932.16
2017-08-16T07:04:07.760Z,98943.66
2017-08-16T07:06:35.219Z,98948.09
2017-08-16T07:09:02.693Z,98948.71
2017-08-16T07:11:30.141Z,98944.44
2017-08-16T07:13:57.625Z,98949.13
2017-08-16T07:16:25.072Z,98948.84
2017-08-16T07:18:52.543Z,98942.53
2017-08-16T07:21:20.012Z,98940.91
2017-08-16T07:23:47.456Z,98940.27
2017-08-16T07:26:14.900Z,98935.73
2017-08-16T07:28:42.360Z,98940.09
2017-08-16T07:31:09.825Z,98944.84
2017-08-16T07:33:37.300Z,98943.27
2017-08-16T07:36:04.745Z,98940.39
2017-08-16T07:38:32.208Z,98939.38
2017-08-16T07:40:59.653Z,98948.73
2017-08-16T07:43:27.099Z,98946.09
2017-08-16T07:45:54.575Z,98948.91
2017-08-16T07:48:22.021Z,98955.35
2017-08-16T07:50:49.477Z,98963.75
2017-08-16T07:53:16.950Z,98961.76
2017-08-16T07:55:44.388Z,98963.89
2017-08-16T07:58:11.849Z,98962.84
2017-08-16T08:00:39.313Z,98964.31
2017-08-16T08:03:06.794Z,98961.75
2017-08-16T08:05:34.253Z,98960.92
2017-08-16T08:08:01.717Z,98976.16
2017-08-16T08:10:29.181Z,98977.80
2017-08-16T08:12:56.648Z,98972.90
2017-08-16T08:15:24.094Z,98981.03
2017-08-16T08:17:51.542Z,98983.89
2017-08-16T08:20:19.012Z,98989.85
2017-08-16T08:22:46.457Z,98986.14
2017-08-16T08:25:13.928Z,98984.25
2017-08-16T08:27:41.381Z,98988.31
2017-08-16T08:30:08.847Z,98988.40
2017-08-16T08:32:36.295Z,98988.41
2017-08-16T08:35:03.772Z,98983.66
2017-08-16T08:37:31.226Z,98988.44
2017-08-16T08:39:58.697Z,98986.25
2017-08-16T08:42:26.147Z,98983.19
2017-08-16T08:44:53.601Z,98988.19
2017-08-16T08:47:21.070Z,98993.13
2017-08-16T08:49:48.517Z,98996.84
2017-08-16T08:52:15.988Z,98986.19
2017-08-16T08:54:43.443Z,98984.56
2017-08-16T08:57:10.907Z,98990.94
2017-08-16T08:59:38.381Z,98984.77
2017-08-16T09:02:05.827Z,98982.27
2017-08-16T09:04:33.269Z,98978.77
2017-08-16T09:07:00.746Z,98981.34
2017-08-16T09:09:28.195Z,98980.50
2017-08-16T09:11:55.674Z,98978.47
2017-08-16T09:14:23.132Z,98980.29
2017-08-16T09:16:50.592Z,98983.09
2017-08-16T09:19:18.037Z,98978.61
2017-08-16T09:21:45.477Z,98967.66
2017-08-16T09:24:12.958Z,98958.17
2017-08-16T09:26:40.409Z,98967.12
2017-08-16T09:29:07.869Z,98958.81
2017-08-16T09:31:35.314Z,98958.09
2017-08-16T09:34:02.765Z,98946.68
2017-08-16T09:36:30.254Z,98949.10
2017-08-16T09:38:57.708Z,98951.40
2017-08-16T09:41:25.177Z,98942.22
2017-08-16T09:43:52.625Z,98939.91
2017-08-16T09:46:20.090Z,98932.03
2017-08-16T09:48:47.566Z,98934.37
2017-08-16T09:51:15.033Z,98932.83
2017-08-16T09:53:42.488Z,98926.59
2017-08-16T09:56:09.956Z,98928.08
2017-08-16T09:58:37.416Z,98922.01
2017-08-16T10:01:04.869Z,98932.62
2017-08-16T10:03:32.337Z,98929.59
2017-08-16T10:05:59.785Z,98920.09
2017-08-16T10:08:27.224Z,98916.63
2017-08-16T10:10:54.692Z,98919.94
2017-08-16T10:13:22.136Z,98917.81
2017-08-16T10:15:49.602Z,98917.27
2017-08-16T10:18:17.049Z,98917.00
2017-08-16T10:20:45.112Z,98918.31
2017-08-16T10:23:12.581Z,98923.53
2017-08-16T10:25:40.025Z,98919.20
2017-08-16T10:28:07.490Z,98922.97
2017-08-16T10:30:34.935Z,98916.47
2017-08-16T10:33:02.374Z,98921.45
2017-08-16T10:35:29.836Z,98921.65
2017-08-16T10:37:57.279Z,98923.74
2017-08-16T10:40:24.744Z,98921.11
2017-08-16T10:42:52.186Z,98920.89
2017-08-16T10:45:19.655Z,98910.34
2017-08-16T10:47:47.106Z,98910.06
2017-08-16T10:50:14.589Z,98908.47
2017-08-16T10:52:42.039Z,98908.19
2017-08-16T10:55:09.501Z,98910.52
2017-08-16T10:57:36.983Z,98907.38
2017-08-16T11:00:04.425Z,98900.56
2017-08-16T11:02:31.875Z,98908.45
2017-08-16T11:04:59.353Z,98915.67
2017-08-16T11:07:26.801Z,98928.67
2017-08-16T11:09:54.268Z,98916.77
2017-08-16T11:12:21.715Z,98913.77
2017-08-16T11:14:49.186Z,98917.76
2017-08-16T11:17:16.628Z,98912.78
2017-08-16T11:19:44.073Z,98907.48
2017-08-16T11:22:11.545Z,98911.95
2017-08-16T11:24:39.018Z,98908.83
2017-08-16T11:27:06.465Z,98914.97
2017-08-16T11:29:33.946Z,98916.53
2017-08-16T11:32:01.394Z,98914.76
2017-08-16T11:34:28.961Z,98915.78
2017-08-16T11:36:56.400Z,98917.02
2017-08-16T11:39:23.845Z,98919.86
2017-08-16T11:41:51.316Z,98923.00
2017-08-16T11:44:18.777Z,98909.08
2017-08-16T11:46:46.248Z,98906.10
2017-08-16T11:49:13.686Z,98902.17
2017-08-16T11:51:41.125Z,98895.24
2017-08-16T11:54:08.585Z,98902.69
2017-08-16T11:56:36.047Z,98899.67
2017-08-16T11:59:03.512Z,98899.02
2017-08-16T12:01:30.961Z,98898.35
2017-08-16T12:03:58.408Z,98895.90
2017-08-16T12:06:25.893Z,98892.75
2017-08-16T12:08:53.338Z,98892.51
2017-08-16T12:11:20.802Z,98889.39
2017-08-16T12:13:48.273Z,98890.34
2017-08-16T12:16:15.736Z,98896.07
2017-08-16T12:18:43.177Z,98884.01
2017-08-16T12:21:10.625Z,98876.59
2017-08-16T12:23:38.105Z,98881.85
2017-08-16T12:26:05.553Z,98882.22
2017-08-16T12:28:33.025Z,98881.09
2017-08-16T12:31:00.542Z,98873.41
2017-08-16T12:33:28.006Z,98874.59
2017-08-16T12:35:55.460Z,98867.31
2017-08-16T12:38:22.939Z,98881.31
2017-08-16T12:40:50.380Z,98859.87
2017-08-16T12:43:17.841Z,98868.10
2017-08-16T12:45:45.310Z,98856.31
2017-08-16T12:48:12.760Z,98856.67
2017-08-16T12:50:40.233Z,98851.44
2017-08-16T12:53:07.689Z,98845.65
2017-08-16T12:55:35.129Z,98855.06
2017-08-16T12:58:02.605Z,98844.20
2017-08-16T13:00:30.073Z,98845.42
2017-08-16T13:02:57.549Z,98847.91
2017-08-16T13:05:24.992Z,98845.61
2017-08-16T13:07:52.458Z,98842.65
2017-08-16T13:10:19.905Z,98831.64
2017-08-16T13:12:47.353Z,98823.26
2017-08-16T13:15:14.825Z,98825.55
2017-08-16T13:17:42.279Z,98823.83
2017-08-16T13:20:09.724Z,98827.30
2017-08-16T13:22:37.208Z,98833.33
2017-08-16T13:25:04.654Z,98825.20
2017-08-16T13:27:32.105Z,98830.03
2017-08-16T13:29:59.588Z,98830.28
2017-08-16T13:32:27.028Z,98825.75
2017-08-16T13:34:54.505Z,98825.69
2017-08-16T13:37:21.958Z,98828.14
2017-08-16T13:39:49.400Z,98830.50
2017-08-16T13:42:16.884Z,98826.72
2017-08-16T13:44:44.334Z,98822.58
2017-08-16T13:47:11.806Z,98825.23
2017-08-16T13:49:39.293Z,98822.85
2017-08-16T13:52:06.747Z,98812.30
2017-08-16T13:54:34.199Z,98815.02
2017-08-16T13:57:01.698Z,98814.02
2017-08-16T13:59:29.140Z,98813.57
2017-08-16T14:01:56.618Z,98810.15
2017-08-16T14:04:24.066Z,98805.27
2017-08-16T14:06:51.506Z,98799.55
2017-08-16T14:09:18.977Z,98806.86
2017-08-16T14:11:46.428Z,98810.50
2017-08-16T14:14:13.908Z,98799.69
2017-08-16T14:16:41.376Z,98801.53
2017-08-16T14:19:08.834Z,98809.23
2017-08-16T14:21:36.305Z,98803.47
2017-08-16T14:24:03.776Z,98805.61
2017-08-16T14:26:31.244Z,98796.69
2017-08-16T14:28:58.727Z,98800.80
2017-08-16T14:31:26.175Z,98792.57
2017-08-16T14:33:53.629Z,98795.26
2017-08-16T14:36:21.094Z,98799.02
2017-08-16T14:38:48.542Z,98797.01
2017-08-16T14:41:16.028Z,98791.88
2017-08-16T14:43:43.483Z,98788.24
2017-08-16T14:46:10.941Z,98796.98
2017-08-16T14:48:38.379Z,98797.91
2017-08-16T14:51:05.845Z,98790.67
2017-08-16T14:53:33.293Z,98807.17
2017-08-16T14:56:00.764Z,98806.02
2017-08-16T14:58:28.238Z,98813.50
2017-08-16T15:00:55.707Z,98808.11
2017-08-16T15:03:23.180Z,98804.56
2017-08-16T15:05:50.666Z,98806.13
2017-08-16T15:08:18.254Z,98802.17
2017-08-16T15:10:45.747Z,98806.93
2017-08-16T15:13:13.229Z,98807.05
2017-08-16T15:15:40.688Z,98800.41
2017-08-16T15:18:09.074Z,98809.77
2017-08-16T15:20:36.524Z,98798.45
2017-08-16T15:23:03.980Z,98801.64
2017-08-16T15:25:31.449Z,98800.02
2017-08-16T15:27:58.889Z,98790.66
2017-08-16T15:30:26.505Z,98799.24
2017-08-16T15:32:54.008Z,98808.56
2017-08-16T15:35:21.449Z,98797.13
2017-08-16T15:37:49.032Z,98791.34
2017-08-16T15:40:16.736Z,98790.27
2017-08-16T15:42:44.184Z,98787.02
2017-08-16T15:45:11.663Z,98783.09
2017-08-16T15:47:39.173Z,98788.91
2017-08-16T15:50:06.659Z,98777.53
2017-08-16T15:52:34.117Z,98776.44
2017-08-16T15:55:01.585Z,98772.48
2017-08-16T15:57:29.030Z,98769.67
2017-08-16T15:59:56.483Z,98768.99
2017-08-16T16:02:23.947Z,98760.90
2017-08-16T16:04:51.426Z,98762.65
2017-08-16T16:07:18.903Z,98761.45
2017-08-16T16:09:46.348Z,98757.98
2017-08-16T16:12:13.837Z,98759.88
2017-08-16T16:14:41.287Z,98754.12
2017-08-16T16:17:08.748Z,98749.49
2017-08-16T16:19:36.221Z,98750.48
2017-08-16T16:22:03.668Z,98757.00
2017-08-16T16:24:31.114Z,98754.80
2017-08-16T16:26:58.585Z,98757.80
2017-08-16T16:29:26.032Z,98757.03
2017-08-16T16:31:53.533Z,98751.59
2017-08-16T16:34:20.979Z,98757.13
2017-08-16T16:36:48.462Z,98754.75
2017-08-16T16:39:15.913Z,98751.70
2017-08-16T16:41:43.378Z,98752.49
2017-08-16T16:44:10.862Z,98753.08
2017-08-16T16:46:38.316Z,98751.00
2017-08-16T16:49:05.789Z,98746.61
2017-08-16T16:51:33.239Z,98757.13
2017-08-16T16:54:00.710Z,98752.44
2017-08-16T16:56:28.164Z,98762.38
2017-08-16T16:58:55.685Z,98757.31
2017-08-16T17:01:23.155Z,98762.20
2017-08-16T17:03:50.638Z,98752.19
2017-08-16T17:06:18.084Z,98757.05
2017-08-16T17:08:45.532Z,98759.80
2017-08-16T17:11:13.007Z,98769.89
2017-08-16T17:13:40.463Z,98768.44
2017-08-16T17:16:07.937Z,98768.74
2017-08-16T17:18:35.390Z,98768.94
2017-08-16T17:21:03.729Z,98770.39
2017-08-16T17:23:31.209Z,98765.15
2017-08-16T17:25:58.645Z,98761.45
2017-08-16T17:28:26.096Z,98765.71
2017-08-16T17:30:53.565Z,98765.70
2017-08-16T17:33:21.037Z,98766.57
2017-08-16T17:35:48.477Z,98768.37
2017-08-16T17:38:15.926Z,98772.78
2017-08-16T17:40:43.389Z,98770.41
2017-08-16T17:43:10.837Z,98770.62
2017-08-16T17:45:38.325Z,98773.15
2017-08-16T17:48:05.780Z,98775.48
2017-08-16T17:50:33.231Z,98773.60
2017-08-16T17:53:00.703Z,98780.10
2017-08-16T17:55:28.153Z,98778.69
2017-08-16T17:57:55.619Z,98774.13
2017-08-16T18:00:23.094Z,98775.64
2017-08-16T18:02:50.568Z,98779.36
2017-08-16T18:05:18.017Z,98776.42
2017-08-16T18:07:45.489Z,98785.27
2017-08-16T18:10:12.962Z,98784.62
2017-08-16T18:12:40.463Z,98795.20
2017-08-16T18:15:07.924Z,98792.53
2017-08-16T18:17:35.428Z,98793.43
2017-08-16T18:20:02.885Z,98789.55
2017-08-16T18:22:30.366Z,98794.20
2017-08-16T18:24:57.836Z,98796.39
2017-08-16T18:27:25.301Z,98790.56
2017-08-16T18:29:52.780Z,98791.84
2017-08-16T18:32:20.235Z,98797.78
2017-08-16T18:34:47.711Z,98792.55
2017-08-16T18:37:15.161Z,98792.81
2017-08-16T18:39:42.602Z,98798.36
2017-08-16T18:42:10.064Z,98794.10
2017-08-16T18:44:37.526Z,98805.70
2017-08-16T18:47:04.997Z,98809.80
2017-08-16T18:49:32.446Z,98812.23
2017-08-16T18:51:59.899Z,98808.36
2017-08-16T18:54:27.369Z,98810.34
2017-08-16T18:56:54.827Z,98810.16
2017-08-16T18:59:22.297Z,98811.59
2017-08-16T19:01:49.744Z,98809.20
2017-08-16T19:04:17.253Z,98814.62
2017-08-16T19:06:44.707Z,98813.98
2017-08-16T19:09:12.162Z,98814.44
2017-08-16T19:11:39.633Z,98814.17
2017-08-16T19:14:07.084Z,98812.27
2017-08-16T19:16:34.562Z,98812.13
2017-08-16T19:19:02.035Z,98819.50
2017-08-16T19:21:29.473Z,98819.59
2017-08-16T19:23:56.967Z,98827.41
2017-08-16T19:26:24.409Z,98832.95
2017-08-16T19:28:51.846Z,98825.10
2017-08-16T19:31:19.325Z,98830.33
2017-08-16T19:33:46.773Z,98833.41
2017-08-16T19:36:14.241Z,98824.09
2017-08-16T19:38:41.706Z,98822.20
2017-08-16T19:41:09.153Z,98828.27
2017-08-16T19:43:36.620Z,98827.59
2017-08-16T19:46:04.337Z,98827.36
2017-08-16T19:48:32.538Z,98819.77
2017-08-16T19:51:00.008Z,98820.22
2017-08-16T19:53:27.455Z,98818.34
2017-08-16T19:55:55.173Z,98817.34
2017-08-16T19:58:23.779Z,98821.79
2017-08-16T20:00:51.550Z,98817.77
2017-08-16T20:03:19.285Z,98815.94
2017-08-16T20:05:46.729Z,98819.63
2017-08-16T20:08:14.229Z,98821.11
2017-08-16T20:10:42.266Z,98819.75
2017-08-16T20:13:09.717Z,98826.42
2017-08-16T20:15:37.186Z,98825.86
2017-08-16T20:18:04.642Z,98829.34
2017-08-16T20:20:32.763Z,98828.81
2017-08-16T20:23:00.228Z,98830.41
2017-08-16T20:25:28.462Z,98830.59
2017-08-16T20:27:56.766Z,98830.34
2017-08-16T20:30:24.272Z,98830.34
2017-08-16T20:32:51.715Z,98824.36
2017-08-16T20:35:19.174Z,98830.82
2017-08-16T20:37:47.689Z,98826.78
2017-08-16T20:40:16.123Z,98827.89
2017-08-16T20:42:43.564Z,98824.25
2017-08-16T20:45:11.061Z,98817.14
2017-08-16T20:47:38.553Z,98814.27
2017-08-16T20:50:06.033Z,98802.77
2017-08-16T20:52:33.459Z,98805.67
2017-08-16T20:55:00.925Z,98802.93
2017-08-16T20:57:28.372Z,98803.86
2017-08-16T20:59:55.832Z,98803.32
2017-08-16T21:02:23.283Z,98806.55
2017-08-16T21:04:50.764Z,98807.23
2017-08-16T21:07:18.218Z,98807.17
2017-08-16T21:09:45.664Z,98805.64
2017-08-16T21:12:13.123Z,98803.39
2017-08-16T21:14:40.597Z,98807.83
2017-08-16T21:17:08.072Z,98803.20
2017-08-16T21:19:35.520Z,98795.53
2017-08-16T21:22:02.970Z,98800.48
2017-08-16T21:24:30.445Z,98800.04
2017-08-16T21:26:57.888Z,98798.56
2017-08-16T21:29:25.334Z,98803.27
2017-08-16T21:31:52.799Z,98801.31
2017-08-16T21:34:20.261Z,98804.03
2017-08-16T21:36:47.707Z,98802.06
2017-08-16T21:39:15.173Z,98797.58
2017-08-16T21:41:42.650Z,98795.41
2017-08-16T21:44:10.144Z,98792.06
2017-08-16T21:46:37.595Z,98791.08
2017-08-16T21:49:05.034Z,98800.31
2017-08-16T21:51:32.506Z,98797.63
2017-08-16T21:53:59.954Z,98799.95
2017-08-16T21:56:27.427Z,98801.06
2017-08-16T21:58:54.874Z,98812.47
2017-08-16T22:01:22.349Z,98811.55
2017-08-16T22:03:49.799Z,98813.67
2017-08-16T22:06:17.262Z,98810.98
2017-08-16T22:08:44.721Z,98818.09
2017-08-16T22:11:12.277Z,98817.66
2017-08-16T22:13:39.749Z,98816.24
2017-08-16T22:16:07.198Z,98819.02
2017-08-16T22:18:34.669Z,98815.80
2017-08-16T22:21:02.117Z,98817.08
2017-08-16T22:23:29.561Z,98821.85
2017-08-16T22:25:57.021Z,98822.52
2017-08-16T22:28:24.470Z,98815.48
2017-08-16T22:30:51.933Z,98814.00
2017-08-16T22:33:19.398Z,98816.11
2017-08-16T22:35:46.848Z,98818.58
2017-08-16T22:38:14.293Z,98817.09
2017-08-16T22:40:41.790Z,98816.38
2017-08-16T22:43:09.237Z,98822.39
2017-08-16T22:45:36.717Z,98821.33
2017-08-16T22:48:04.158Z,98827.72
2017-08-16T22:50:31.618Z,98819.52
2017-08-16T22:52:59.079Z,98824.35
2017-08-16T22:55:26.565Z,98825.82
2017-08-16T22:57:54.005Z,98819.44
2017-08-16T23:00:21.463Z,98821.86
2017-08-16T23:02:48.932Z,98823.44
2017-08-16T23:05:16.392Z,98825.89
2017-08-16T23:07:43.833Z,98825.97
2017-08-16T23:10:11.298Z,98832.00
2017-08-16T23:12:38.749Z,98827.37
2017-08-16T23:15:06.209Z,98832.92
2017-08-16T23:17:33.683Z,98823.89
2017-08-16T23:20:01.191Z,98828.39
2017-08-16T23:22:28.685Z,98822.48
2017-08-16T23:24:56.155Z,98815.12
2017-08-16T23:27:23.598Z,98809.67
2017-08-16T23:29:51.072Z,98806.77
2017-08-16T23:32:18.533Z,98811.70
2017-08-16T23:34:46.005Z,98805.69
2017-08-16T23:37:13.455Z,98810.52
2017-08-16T23:39:40.911Z,98811.23
2017-08-16T23:42:08.381Z,98806.73
2017-08-16T23:44:35.829Z,98810.41
2017-08-16T23:47:03.276Z,98803.22
2017-08-16T23:49:30.744Z,98798.61
2017-08-16T23:51:58.216Z,98801.83
2017-08-16T23:54:25.670Z,98798.75
2017-08-16T23:56:53.128Z,98796.95
2017-08-16T23:59:20.598Z,98791.64
